sensor_id;sensor_type;location;lat;lon;timestamp;noise_LAeq;noise_LA_min;noise_LA_max;noise_LA01;noise_LA95
68945;Laerm;55984;48.790;8.990;2023-01-10T00:00:36;47.28;46.05;49.98;;
68945;Laerm;55984;48.790;8.990;2023-01-10T00:03:03;47.28;46.09;49.48;;
68945;Laerm;55984;48.790;8.990;2023-01-10T00:05:30;47.28;46.11;49.19;;
68945;Laerm;55984;48.790;8.990;2023-01-10T00:07:55;47.27;46.18;49.22;;
68945;Laerm;55984;48.790;8.990;2023-01-10T00:10:23;47.27;45.97;49.15;;
68945;Laerm;55984;48.790;8.990;2023-01-10T00:12:52;47.28;46.07;49.39;;
68945;Laerm;55984;48.790;8.990;2023-01-10T00:15:36;47.28;46.19;49.26;;
68945;Laerm;55984;48.790;8.990;2023-01-10T00:18:02;47.28;46.09;49.08;;
68945;Laerm;55984;48.790;8.990;2023-01-10T00:20:27;47.28;46.00;49.21;;
68945;Laerm;55984;48.790;8.990;2023-01-10T00:22:53;47.28;46.22;49.59;;
68945;Laerm;55984;48.790;8.990;2023-01-10T00:25:18;47.27;46.05;49.68;;
68945;Laerm;55984;48.790;8.990;2023-01-10T00:27:49;47.28;46.14;49.76;;
68945;Laerm;55984;48.790;8.990;2023-01-10T00:30:26;47.26;46.20;49.41;;
68945;Laerm;55984;48.790;8.990;2023-01-10T00:32:52;47.28;46.00;48.77;;
68945;Laerm;55984;48.790;8.990;2023-01-10T00:35:19;47.27;46.10;49.06;;
68945;Laerm;55984;48.790;8.990;2023-01-10T00:37:44;47.27;46.12;49.54;;
68945;Laerm;55984;48.790;8.990;2023-01-10T00:40:10;47.27;46.09;49.26;;
68945;Laerm;55984;48.790;8.990;2023-01-10T00:42:36;47.27;45.97;49.68;;
68945;Laerm;55984;48.790;8.990;2023-01-10T00:45:21;47.27;46.08;48.99;;
68945;Laerm;55984;48.790;8.990;2023-01-10T00:47:56;47.27;46.22;49.65;;
68945;Laerm;55984;48.790;8.990;2023-01-10T00:50:27;47.27;45.76;49.31;;
68945;Laerm;55984;48.790;8.990;2023-01-10T00:52:53;47.27;46.04;49.27;;
68945;Laerm;55984;48.790;8.990;2023-01-10T00:55:22;47.28;46.27;49.74;;
68945;Laerm;55984;48.790;8.990;2023-01-10T00:57:49;47.27;46.05;49.14;;
68945;Laerm;55984;48.790;8.990;2023-01-10T01:00:15;47.27;46.06;49.28;;
68945;Laerm;55984;48.790;8.990;2023-01-10T01:02:41;47.27;46.15;49.08;;
68945;Laerm;55984;48.790;8.990;2023-01-10T01:05:07;47.27;46.23;49.43;;
68945;Laerm;55984;48.790;8.990;2023-01-10T01:07:36;47.27;46.13;49.48;;
68945;Laerm;55984;48.790;8.990;2023-01-10T01:10:02;47.27;46.09;49.18;;
68945;Laerm;55984;48.790;8.990;2023-01-10T01:12:46;47.27;46.12;49.57;;
68945;Laerm;55984;48.790;8.990;2023-01-10T01:15:11;47.28;46.09;49.58;;
68945;Laerm;55984;48.790;8.990;2023-01-10T01:17:38;47.27;46.12;49.16;;
68945;Laerm;55984;48.790;8.990;2023-01-10T01:20:04;47.27;45.97;49.62;;
68945;Laerm;55984;48.790;8.990;2023-01-10T01:22:30;47.27;46.29;49.35;;
68945;Laerm;55984;48.790;8.990;2023-01-10T01:24:56;47.27;46.24;49.23;;
68945;Laerm;55984;48.790;8.990;2023-01-10T01:27:21;47.28;46.03;49.27;;
68945;Laerm;55984;48.790;8.990;2023-01-10T01:29:46;47.27;46.06;49.54;;
68945;Laerm;55984;48.790;8.990;2023-01-10T01:32:12;47.28;46.08;49.47;;
68945;Laerm;55984;48.790;8.990;2023-01-10T01:34:37;47.28;46.14;49.40;;
68945;Laerm;55984;48.790;8.990;2023-01-10T01:37:03;47.28;46.10;49.65;;
68945;Laerm;55984;48.790;8.990;2023-01-10T01:39:28;47.28;46.18;49.60;;
68945;Laerm;55984;48.790;8.990;2023-01-10T01:41:53;47.28;46.17;49.16;;
68945;Laerm;55984;48.790;8.990;2023-01-10T01:44:22;47.28;46.28;49.57;;
68945;Laerm;55984;48.790;8.990;2023-01-10T01:46:53;47.28;46.26;49.41;;
68945;Laerm;55984;48.790;8.990;2023-01-10T01:49:23;47.28;46.22;49.92;;
68945;Laerm;55984;48.790;8.990;2023-01-10T01:51:52;47.28;46.28;49.50;;
68945;Laerm;55984;48.790;8.990;2023-01-10T01:54:19;47.28;46.11;49.35;;
68945;Laerm;55984;48.790;8.990;2023-01-10T01:56:53;47.28;45.96;49.75;;
68945;Laerm;55984;48.790;8.990;2023-01-10T01:59:41;47.28;46.16;49.40;;
68945;Laerm;55984;48.790;8.990;2023-01-10T02:02:10;47.27;46.05;49.35;;
68945;Laerm;55984;48.790;8.990;2023-01-10T02:04:45;47.28;46.23;49.53;;
68945;Laerm;55984;48.790;8.990;2023-01-10T02:07:13;47.28;45.97;49.38;;
68945;Laerm;55984;48.790;8.990;2023-01-10T02:09:47;47.28;46.18;49.57;;
68945;Laerm;55984;48.790;8.990;2023-01-10T02:12:14;47.27;46.03;49.39;;
68945;Laerm;55984;48.790;8.990;2023-01-10T02:14:42;47.29;46.16;48.97;;
68945;Laerm;55984;48.790;8.990;2023-01-10T02:17:09;47.28;46.27;49.71;;
68945;Laerm;55984;48.790;8.990;2023-01-10T02:30:58;47.27;46.04;49.41;;
68945;Laerm;55984;48.790;8.990;2023-01-10T02:33:43;47.27;45.98;49.65;;
68945;Laerm;55984;48.790;8.990;2023-01-10T02:36:19;47.26;45.92;50.04;;
68945;Laerm;55984;48.790;8.990;2023-01-10T02:39:01;47.26;46.06;49.86;;
68945;Laerm;55984;48.790;8.990;2023-01-10T02:41:30;47.26;46.12;49.64;;
68945;Laerm;55984;48.790;8.990;2023-01-10T02:44:03;47.27;46.16;49.63;;
68945;Laerm;55984;48.790;8.990;2023-01-10T02:46:31;47.28;46.16;49.48;;
68945;Laerm;55984;48.790;8.990;2023-01-10T02:48:58;47.27;46.03;49.31;;
68945;Laerm;55984;48.790;8.990;2023-01-10T03:59:09;47.26;46.11;49.43;;
68945;Laerm;55984;48.790;8.990;2023-01-10T04:01:35;47.26;46.18;49.46;;
68945;Laerm;55984;48.790;8.990;2023-01-10T04:04:01;47.26;46.20;49.71;;
68945;Laerm;55984;48.790;8.990;2023-01-10T04:06:26;47.27;46.13;49.64;;
68945;Laerm;55984;48.790;8.990;2023-01-10T04:08:57;47.26;46.08;49.75;;
68945;Laerm;55984;48.790;8.990;2023-01-10T04:11:22;47.26;46.16;49.44;;
68945;Laerm;55984;48.790;8.990;2023-01-10T04:13:48;47.26;46.19;49.26;;
68945;Laerm;55984;48.790;8.990;2023-01-10T04:16:13;47.26;46.07;49.58;;
68945;Laerm;55984;48.790;8.990;2023-01-10T04:18:42;47.27;45.98;49.77;;
68945;Laerm;55984;48.790;8.990;2023-01-10T04:21:07;47.27;46.11;48.79;;
68945;Laerm;55984;48.790;8.990;2023-01-10T04:23:33;47.26;46.00;49.77;;
68945;Laerm;55984;48.790;8.990;2023-01-10T04:25:58;47.26;45.92;49.48;;
68945;Laerm;55984;48.790;8.990;2023-01-10T04:28:26;47.27;46.03;49.04;;
68945;Laerm;55984;48.790;8.990;2023-01-10T04:30:51;47.26;46.20;49.53;;
68945;Laerm;55984;48.790;8.990;2023-01-10T04:33:16;47.25;46.11;49.53;;
68945;Laerm;55984;48.790;8.990;2023-01-10T04:35:49;47.25;45.96;49.06;;
68945;Laerm;55984;48.790;8.990;2023-01-10T04:38:15;47.26;46.20;49.67;;
68945;Laerm;55984;48.790;8.990;2023-01-10T04:40:41;47.26;46.26;49.72;;
68945;Laerm;55984;48.790;8.990;2023-01-10T04:43:07;47.26;45.94;49.59;;
68945;Laerm;55984;48.790;8.990;2023-01-10T04:45:33;47.26;46.18;49.70;;
68945;Laerm;55984;48.790;8.990;2023-01-10T04:47:58;47.25;46.15;49.29;;
68945;Laerm;55984;48.790;8.990;2023-01-10T04:50:25;47.26;46.07;49.45;;
68945;Laerm;55984;48.790;8.990;2023-01-10T04:52:51;47.25;46.07;49.07;;
68945;Laerm;55984;48.790;8.990;2023-01-10T04:55:17;47.25;46.16;49.81;;
68945;Laerm;55984;48.790;8.990;2023-01-10T04:57:43;47.26;46.25;50.10;;
68945;Laerm;55984;48.790;8.990;2023-01-10T05:00:09;47.25;46.09;49.53;;
68945;Laerm;55984;48.790;8.990;2023-01-10T05:02:34;47.26;46.21;49.66;;
68945;Laerm;55984;48.790;8.990;2023-01-10T05:05:06;47.26;45.94;49.36;;
68945;Laerm;55984;48.790;8.990;2023-01-10T05:07:32;47.25;46.12;49.61;;
68945;Laerm;55984;48.790;8.990;2023-01-10T05:09:58;47.26;46.03;49.35;;
68945;Laerm;55984;48.790;8.990;2023-01-10T05:12:23;47.25;46.13;49.54;;
68945;Laerm;55984;48.790;8.990;2023-01-10T05:14:49;47.26;46.17;50.14;;
68945;Laerm;55984;48.790;8.990;2023-01-10T05:17:15;47.25;46.05;49.36;;
68945;Laerm;55984;48.790;8.990;2023-01-10T05:19:40;47.25;46.22;49.91;;
68945;Laerm;55984;48.790;8.990;2023-01-10T05:22:05;47.26;46.12;49.76;;
68945;Laerm;55984;48.790;8.990;2023-01-10T05:24:31;47.25;46.23;49.44;;
68945;Laerm;55984;48.790;8.990;2023-01-10T05:26:57;47.26;46.21;49.48;;
68945;Laerm;55984;48.790;8.990;2023-01-10T05:29:23;47.26;46.16;49.87;;
68945;Laerm;55984;48.790;8.990;2023-01-10T05:31:50;47.26;46.04;49.25;;
68945;Laerm;55984;48.790;8.990;2023-01-10T05:34:16;47.26;46.29;49.19;;
68945;Laerm;55984;48.790;8.990;2023-01-10T05:36:41;47.25;45.92;49.78;;
68945;Laerm;55984;48.790;8.990;2023-01-10T05:39:07;47.26;46.15;49.11;;
68945;Laerm;55984;48.790;8.990;2023-01-10T05:41:32;47.26;45.94;49.57;;
68945;Laerm;55984;48.790;8.990;2023-01-10T05:43:58;47.26;46.03;49.47;;
68945;Laerm;55984;48.790;8.990;2023-01-10T05:46:23;47.26;46.03;49.57;;
68945;Laerm;55984;48.790;8.990;2023-01-10T05:48:51;47.26;46.02;49.63;;
68945;Laerm;55984;48.790;8.990;2023-01-10T05:51:16;47.26;46.24;49.71;;
68945;Laerm;55984;48.790;8.990;2023-01-10T05:53:42;47.27;45.73;50.06;;
68945;Laerm;55984;48.790;8.990;2023-01-10T05:56:08;47.28;46.13;49.33;;
68945;Laerm;55984;48.790;8.990;2023-01-10T05:58:33;47.26;46.12;49.72;;
68945;Laerm;55984;48.790;8.990;2023-01-10T06:00:59;47.26;46.11;49.88;;
68945;Laerm;55984;48.790;8.990;2023-01-10T06:03:25;47.26;46.16;49.23;;
68945;Laerm;55984;48.790;8.990;2023-01-10T06:05:54;47.26;46.11;49.48;;
68945;Laerm;55984;48.790;8.990;2023-01-10T06:08:20;47.27;46.01;49.47;;
68945;Laerm;55984;48.790;8.990;2023-01-10T06:10:46;47.27;46.25;49.42;;
68945;Laerm;55984;48.790;8.990;2023-01-10T06:13:11;47.26;46.22;49.85;;
68945;Laerm;55984;48.790;8.990;2023-01-10T06:15:37;47.27;46.03;49.91;;
68945;Laerm;55984;48.790;8.990;2023-01-10T06:18:02;47.27;46.17;49.27;;
68945;Laerm;55984;48.790;8.990;2023-01-10T06:20:28;47.26;46.19;49.81;;
68945;Laerm;55984;48.790;8.990;2023-01-10T06:22:53;47.26;46.06;49.50;;
68945;Laerm;55984;48.790;8.990;2023-01-10T06:25:19;47.26;45.96;49.29;;
68945;Laerm;55984;48.790;8.990;2023-01-10T06:27:44;47.27;46.19;49.49;;
68945;Laerm;55984;48.790;8.990;2023-01-10T06:30:11;47.27;46.20;49.68;;
68945;Laerm;55984;48.790;8.990;2023-01-10T06:32:37;47.27;46.12;49.12;;
68945;Laerm;55984;48.790;8.990;2023-01-10T06:35:03;47.25;46.05;49.70;;
68945;Laerm;55984;48.790;8.990;2023-01-10T06:37:29;47.27;46.01;49.51;;
68945;Laerm;55984;48.790;8.990;2023-01-10T06:39:55;47.27;45.70;49.46;;
68945;Laerm;55984;48.790;8.990;2023-01-10T06:42:21;47.27;46.12;49.46;;
68945;Laerm;55984;48.790;8.990;2023-01-10T06:44:46;47.27;46.03;49.10;;
68945;Laerm;55984;48.790;8.990;2023-01-10T06:47:11;47.28;46.17;49.55;;
68945;Laerm;55984;48.790;8.990;2023-01-10T06:49:37;47.26;46.22;49.88;;
68945;Laerm;55984;48.790;8.990;2023-01-10T06:52:02;47.27;45.99;49.03;;
68945;Laerm;55984;48.790;8.990;2023-01-10T06:54:28;47.26;45.98;49.54;;
68945;Laerm;55984;48.790;8.990;2023-01-10T06:56:53;47.27;46.05;49.46;;
68945;Laerm;55984;48.790;8.990;2023-01-10T06:59:18;47.27;46.18;49.20;;
68945;Laerm;55984;48.790;8.990;2023-01-10T07:01:44;47.26;46.23;49.51;;
68945;Laerm;55984;48.790;8.990;2023-01-10T07:04:09;47.27;46.32;49.94;;
68945;Laerm;55984;48.790;8.990;2023-01-10T07:06:36;47.28;45.94;49.75;;
68945;Laerm;55984;48.790;8.990;2023-01-10T07:09:03;47.26;46.20;49.51;;
68945;Laerm;55984;48.790;8.990;2023-01-10T07:11:30;47.26;46.22;49.48;;
68945;Laerm;55984;48.790;8.990;2023-01-10T07:13:56;47.27;46.32;49.19;;
68945;Laerm;55984;48.790;8.990;2023-01-10T07:16:21;47.27;46.17;49.20;;
68945;Laerm;55984;48.790;8.990;2023-01-10T07:18:47;47.26;46.16;49.39;;
68945;Laerm;55984;48.790;8.990;2023-01-10T07:21:12;47.27;46.22;50.00;;
68945;Laerm;55984;48.790;8.990;2023-01-10T07:23:46;47.26;46.30;50.05;;
68945;Laerm;55984;48.790;8.990;2023-01-10T07:26:14;47.27;46.09;49.78;;
68945;Laerm;55984;48.790;8.990;2023-01-10T07:28:42;47.26;45.90;49.70;;
68945;Laerm;55984;48.790;8.990;2023-01-10T07:31:09;47.27;46.06;49.19;;
68945;Laerm;55984;48.790;8.990;2023-01-10T07:33:34;47.26;46.25;49.95;;
68945;Laerm;55984;48.790;8.990;2023-01-10T07:36:00;47.27;46.15;49.12;;
68945;Laerm;55984;48.790;8.990;2023-01-10T07:38:25;47.27;46.13;49.61;;
68945;Laerm;55984;48.790;8.990;2023-01-10T07:40:51;47.27;46.18;49.36;;
68945;Laerm;55984;48.790;8.990;2023-01-10T07:43:16;47.26;46.13;49.66;;
68945;Laerm;55984;48.790;8.990;2023-01-10T07:45:42;47.26;46.25;49.77;;
68945;Laerm;55984;48.790;8.990;2023-01-10T07:48:09;47.27;46.16;49.66;;
68945;Laerm;55984;48.790;8.990;2023-01-10T07:50:37;47.26;46.31;49.25;;
68945;Laerm;55984;48.790;8.990;2023-01-10T07:53:05;47.27;46.04;49.47;;
68945;Laerm;55984;48.790;8.990;2023-01-10T07:55:31;47.27;45.94;49.51;;
68945;Laerm;55984;48.790;8.990;2023-01-10T07:57:58;47.27;46.02;49.42;;
68945;Laerm;55984;48.790;8.990;2023-01-10T08:00:24;47.27;46.11;48.86;;
68945;Laerm;55984;48.790;8.990;2023-01-10T08:02:52;47.28;46.11;49.70;;
68945;Laerm;55984;48.790;8.990;2023-01-10T08:05:18;47.27;45.91;49.46;;
68945;Laerm;55984;48.790;8.990;2023-01-10T08:07:44;47.27;45.90;49.30;;
68945;Laerm;55984;48.790;8.990;2023-01-10T08:10:09;47.27;45.92;49.25;;
68945;Laerm;55984;48.790;8.990;2023-01-10T08:12:35;47.27;46.05;49.54;;
68945;Laerm;55984;48.790;8.990;2023-01-10T08:15:00;47.27;46.10;49.55;;
68945;Laerm;55984;48.790;8.990;2023-01-10T08:17:26;47.27;46.16;49.23;;
68945;Laerm;55984;48.790;8.990;2023-01-10T08:19:51;47.28;46.02;49.58;;
68945;Laerm;55984;48.790;8.990;2023-01-10T08:22:17;47.28;46.19;49.48;;
68945;Laerm;55984;48.790;8.990;2023-01-10T08:24:42;47.28;46.21;49.81;;
68945;Laerm;55984;48.790;8.990;2023-01-10T08:27:08;47.28;46.21;49.41;;
68945;Laerm;55984;48.790;8.990;2023-01-10T08:29:33;47.27;46.17;49.37;;
68945;Laerm;55984;48.790;8.990;2023-01-10T08:31:59;47.28;45.84;50.02;;
68945;Laerm;55984;48.790;8.990;2023-01-10T08:34:24;47.29;46.15;49.69;;
68945;Laerm;55984;48.790;8.990;2023-01-10T08:36:51;47.29;46.17;49.33;;
68945;Laerm;55984;48.790;8.990;2023-01-10T08:39:18;47.29;46.15;49.87;;
68945;Laerm;55984;48.790;8.990;2023-01-10T08:41:45;47.29;46.03;49.49;;
68945;Laerm;55984;48.790;8.990;2023-01-10T08:44:11;47.29;46.05;49.35;;
68945;Laerm;55984;48.790;8.990;2023-01-10T08:46:39;47.29;46.25;50.06;;
68945;Laerm;55984;48.790;8.990;2023-01-10T08:49:04;47.29;46.31;49.07;;
68945;Laerm;55984;48.790;8.990;2023-01-10T08:51:30;47.29;46.11;49.26;;
68945;Laerm;55984;48.790;8.990;2023-01-10T08:53:55;47.30;46.08;49.74;;
68945;Laerm;55984;48.790;8.990;2023-01-10T08:56:20;47.29;46.00;49.69;;
68945;Laerm;55984;48.790;8.990;2023-01-10T08:58:46;47.28;46.02;49.62;;
68945;Laerm;55984;48.790;8.990;2023-01-10T09:01:11;47.29;46.18;49.51;;
68945;Laerm;55984;48.790;8.990;2023-01-10T09:03:38;47.29;46.13;49.98;;
68945;Laerm;55984;48.790;8.990;2023-01-10T09:06:04;47.28;46.12;49.42;;
68945;Laerm;55984;48.790;8.990;2023-01-10T09:08:29;47.28;46.15;49.44;;
68945;Laerm;55984;48.790;8.990;2023-01-10T09:10:57;47.28;46.17;49.75;;
68945;Laerm;55984;48.790;8.990;2023-01-10T09:13:23;47.29;46.01;49.58;;
68945;Laerm;55984;48.790;8.990;2023-01-10T09:15:50;47.29;46.17;49.64;;
68945;Laerm;55984;48.790;8.990;2023-01-10T09:18:15;47.29;46.19;49.19;;
68945;Laerm;55984;48.790;8.990;2023-01-10T09:20:41;47.28;46.13;49.76;;
68945;Laerm;55984;48.790;8.990;2023-01-10T09:23:09;47.28;45.98;49.35;;
68945;Laerm;55984;48.790;8.990;2023-01-10T09:25:35;47.29;46.28;49.63;;
68945;Laerm;55984;48.790;8.990;2023-01-10T09:28:01;47.29;45.80;49.84;;
68945;Laerm;55984;48.790;8.990;2023-01-10T09:30:28;47.29;46.10;49.46;;
68945;Laerm;55984;48.790;8.990;2023-01-10T09:32:55;47.28;46.20;49.82;;
68945;Laerm;55984;48.790;8.990;2023-01-10T09:35:22;47.29;46.13;49.27;;
68945;Laerm;55984;48.790;8.990;2023-01-10T09:37:47;47.30;46.12;49.24;;
68945;Laerm;55984;48.790;8.990;2023-01-10T09:40:19;47.29;46.19;49.20;;
68945;Laerm;55984;48.790;8.990;2023-01-10T09:43:03;47.31;46.09;49.83;;
68945;Laerm;55984;48.790;8.990;2023-01-10T09:51:41;47.29;46.11;49.48;;
68945;Laerm;55984;48.790;8.990;2023-01-10T09:54:13;47.29;46.00;49.99;;
68945;Laerm;55984;48.790;8.990;2023-01-10T09:56:41;47.29;46.16;50.05;;
68945;Laerm;55984;48.790;8.990;2023-01-10T09:59:14;47.29;46.08;49.33;;
68945;Laerm;55984;48.790;8.990;2023-01-10T10:01:41;47.31;46.18;49.52;;
68945;Laerm;55984;48.790;8.990;2023-01-10T10:04:24;47.30;46.03;49.88;;
68945;Laerm;55984;48.790;8.990;2023-01-10T10:06:52;47.31;46.29;49.96;;
68945;Laerm;55984;48.790;8.990;2023-01-10T10:09:22;47.31;46.18;49.38;;
68945;Laerm;55984;48.790;8.990;2023-01-10T10:17:45;47.31;46.26;50.05;;
68945;Laerm;55984;48.790;8.990;2023-01-10T10:22:56;47.31;46.08;49.50;;
68945;Laerm;55984;48.790;8.990;2023-01-10T10:30:55;47.31;46.07;49.36;;
68945;Laerm;55984;48.790;8.990;2023-01-10T10:33:48;47.31;46.16;49.73;;
68945;Laerm;55984;48.790;8.990;2023-01-10T10:36:24;47.31;46.25;49.34;;
68945;Laerm;55984;48.790;8.990;2023-01-10T10:38:52;47.32;46.25;49.24;;
68945;Laerm;55984;48.790;8.990;2023-01-10T10:41:30;47.31;46.15;49.94;;
68945;Laerm;55984;48.790;8.990;2023-01-10T10:44:00;47.31;46.18;49.72;;
68945;Laerm;55984;48.790;8.990;2023-01-10T10:46:30;47.31;46.14;49.32;;
68945;Laerm;55984;48.790;8.990;2023-01-10T10:48:58;47.33;46.17;49.87;;
68945;Laerm;55984;48.790;8.990;2023-01-10T10:51:29;47.32;46.08;49.94;;
68945;Laerm;55984;48.790;8.990;2023-01-10T10:53:58;47.33;46.09;49.29;;
68945;Laerm;55984;48.790;8.990;2023-01-10T10:56:25;47.33;46.16;49.69;;
68945;Laerm;55984;48.790;8.990;2023-01-10T10:58:53;47.34;46.26;50.04;;
68945;Laerm;55984;48.790;8.990;2023-01-10T11:01:20;47.34;46.17;49.76;;
68945;Laerm;55984;48.790;8.990;2023-01-10T11:03:58;47.33;46.21;49.54;;
68945;Laerm;55984;48.790;8.990;2023-01-10T11:06:26;47.33;46.16;49.82;;
68945;Laerm;55984;48.790;8.990;2023-01-10T11:08:56;47.35;46.27;48.93;;
68945;Laerm;55984;48.790;8.990;2023-01-10T11:11:30;47.35;46.16;50.05;;
68945;Laerm;55984;48.790;8.990;2023-01-10T11:14:03;47.35;46.24;49.72;;
68945;Laerm;55984;48.790;8.990;2023-01-10T11:16:35;47.35;46.12;49.47;;
68945;Laerm;55984;48.790;8.990;2023-01-10T11:21:32;47.34;46.25;49.74;;
68945;Laerm;55984;48.790;8.990;2023-01-10T11:23:58;47.34;46.30;49.85;;
68945;Laerm;55984;48.790;8.990;2023-01-10T11:26:27;47.33;46.19;49.52;;
68945;Laerm;55984;48.790;8.990;2023-01-10T11:29:21;47.33;46.19;49.82;;
68945;Laerm;55984;48.790;8.990;2023-01-10T11:31:48;47.33;46.14;50.05;;
68945;Laerm;55984;48.790;8.990;2023-01-10T11:34:24;47.34;46.09;50.26;;
68945;Laerm;55984;48.790;8.990;2023-01-10T11:39:25;47.32;46.20;49.44;;
68945;Laerm;55984;48.790;8.990;2023-01-10T11:41:51;47.32;46.17;49.71;;
68945;Laerm;55984;48.790;8.990;2023-01-10T11:44:27;47.32;46.15;49.85;;
68945;Laerm;55984;48.790;8.990;2023-01-10T11:47:00;47.33;46.20;49.46;;
68945;Laerm;55984;48.790;8.990;2023-01-10T11:49:36;47.32;46.02;50.01;;
68945;Laerm;55984;48.790;8.990;2023-01-10T11:52:25;47.32;45.93;49.30;;
68945;Laerm;55984;48.790;8.990;2023-01-10T11:54:55;47.35;46.25;49.76;;
68945;Laerm;55984;48.790;8.990;2023-01-10T11:57:29;47.38;46.26;49.44;;
68945;Laerm;55984;48.790;8.990;2023-01-10T12:00:01;47.40;46.19;49.67;;
68945;Laerm;55984;48.790;8.990;2023-01-10T12:02:30;47.42;46.31;50.28;;
68945;Laerm;55984;48.790;8.990;2023-01-10T12:04:59;47.42;45.97;49.80;;
68945;Laerm;55984;48.790;8.990;2023-01-10T12:07:26;47.44;46.32;50.28;;
68945;Laerm;55984;48.790;8.990;2023-01-10T12:09:58;47.43;46.14;50.02;;
68945;Laerm;55984;48.790;8.990;2023-01-10T12:12:35;47.44;46.23;49.75;;
68945;Laerm;55984;48.790;8.990;2023-01-10T12:17:57;47.44;46.04;49.63;;
68945;Laerm;55984;48.790;8.990;2023-01-10T12:20:30;47.46;46.40;50.38;;
68945;Laerm;55984;48.790;8.990;2023-01-10T12:23:04;47.43;46.08;49.60;;
68945;Laerm;55984;48.790;8.990;2023-01-10T12:25:40;47.42;46.26;49.72;;
68945;Laerm;55984;48.790;8.990;2023-01-10T12:28:31;47.41;46.05;49.71;;
68945;Laerm;55984;48.790;8.990;2023-01-10T12:31:03;47.41;46.12;49.59;;
68945;Laerm;55984;48.790;8.990;2023-01-10T12:33:38;47.42;46.24;49.74;;
68945;Laerm;55984;48.790;8.990;2023-01-10T12:38:48;47.42;46.31;50.14;;
68945;Laerm;55984;48.790;8.990;2023-01-10T12:44:46;47.43;46.25;49.70;;
68945;Laerm;55984;48.790;8.990;2023-01-10T12:47:31;47.44;46.10;49.72;;
68945;Laerm;55984;48.790;8.990;2023-01-10T12:50:21;47.44;46.29;49.67;;
68945;Laerm;55984;48.790;8.990;2023-01-10T12:52:54;47.43;46.27;49.70;;
68945;Laerm;55984;48.790;8.990;2023-01-10T12:55:41;47.45;46.37;49.67;;
68945;Laerm;55984;48.790;8.990;2023-01-10T12:58:18;47.45;46.28;49.77;;
68945;Laerm;55984;48.790;8.990;2023-01-10T13:00:58;47.44;46.27;49.89;;
68945;Laerm;55984;48.790;8.990;2023-01-10T13:03:30;47.43;46.21;49.44;;
68945;Laerm;55984;48.790;8.990;2023-01-10T13:06:01;47.43;46.12;49.76;;
68945;Laerm;55984;48.790;8.990;2023-01-10T13:08:38;47.47;46.38;49.91;;
68945;Laerm;55984;48.790;8.990;2023-01-10T13:11:11;47.47;46.32;49.66;;
68945;Laerm;55984;48.790;8.990;2023-01-10T13:13:49;47.50;46.33;49.74;;
68945;Laerm;55984;48.790;8.990;2023-01-10T13:21:39;47.60;46.36;49.36;;
68945;Laerm;55984;48.790;8.990;2023-01-10T13:24:24;47.55;46.36;49.56;;
68945;Laerm;55984;48.790;8.990;2023-01-10T13:26:57;47.53;46.22;49.64;;
68945;Laerm;55984;48.790;8.990;2023-01-10T13:29:29;47.51;46.26;49.49;;
68945;Laerm;55984;48.790;8.990;2023-01-10T13:32:00;47.48;46.31;49.48;;
68945;Laerm;55984;48.790;8.990;2023-01-10T13:34:32;47.46;46.12;50.10;;
68945;Laerm;55984;48.790;8.990;2023-01-10T13:37:02;47.47;46.31;49.70;;
68945;Laerm;55984;48.790;8.990;2023-01-10T13:39:38;47.51;46.37;49.79;;
68945;Laerm;55984;48.790;8.990;2023-01-10T14:00:50;47.64;46.54;49.44;;
68945;Laerm;55984;48.790;8.990;2023-01-10T14:03:51;47.63;46.43;49.83;;
68945;Laerm;55984;48.790;8.990;2023-01-10T14:11:52;47.63;46.41;50.18;;
68945;Laerm;55984;48.790;8.990;2023-01-10T14:14:33;47.51;46.36;49.69;;
68945;Laerm;55984;48.790;8.990;2023-01-10T14:19:45;47.43;46.38;49.68;;
68945;Laerm;55984;48.790;8.990;2023-01-10T14:22:30;47.47;46.33;49.80;;
68945;Laerm;55984;48.790;8.990;2023-01-10T14:24:58;47.47;46.34;49.80;;
68945;Laerm;55984;48.790;8.990;2023-01-10T14:27:24;47.45;46.39;49.70;;
68945;Laerm;55984;48.790;8.990;2023-01-10T14:29:56;47.43;46.22;49.63;;
68945;Laerm;55984;48.790;8.990;2023-01-10T14:34:55;47.40;46.15;49.63;;
68945;Laerm;55984;48.790;8.990;2023-01-10T14:37:37;47.38;46.29;50.47;;
68945;Laerm;55984;48.790;8.990;2023-01-10T14:40:21;47.39;46.38;49.65;;
68945;Laerm;55984;48.790;8.990;2023-01-10T14:42:49;47.38;46.11;49.65;;
68945;Laerm;55984;48.790;8.990;2023-01-10T14:45:28;47.38;46.19;49.38;;
68945;Laerm;55984;48.790;8.990;2023-01-10T14:47:54;47.38;46.20;49.82;;
68945;Laerm;55984;48.790;8.990;2023-01-10T14:50:28;47.38;45.97;49.71;;
68945;Laerm;55984;48.790;8.990;2023-01-10T14:52:58;47.38;46.19;50.10;;
68945;Laerm;55984;48.790;8.990;2023-01-10T14:55:24;47.37;46.04;49.30;;
68945;Laerm;55984;48.790;8.990;2023-01-10T15:02:51;47.36;46.25;49.74;;
68945;Laerm;55984;48.790;8.990;2023-01-10T15:05:19;47.36;46.10;50.08;;
68945;Laerm;55984;48.790;8.990;2023-01-10T15:07:46;47.36;46.30;49.11;;
68945;Laerm;55984;48.790;8.990;2023-01-10T15:12:46;47.36;46.09;49.48;;
68945;Laerm;55984;48.790;8.990;2023-01-10T15:15:16;47.36;46.27;49.81;;
68945;Laerm;55984;48.790;8.990;2023-01-10T15:17:44;47.35;46.15;49.39;;
68945;Laerm;55984;48.790;8.990;2023-01-10T15:20:14;47.36;46.27;49.59;;
68945;Laerm;55984;48.790;8.990;2023-01-10T15:22:43;47.35;46.32;49.94;;
68945;Laerm;55984;48.790;8.990;2023-01-10T15:27:47;47.36;46.23;49.69;;
68945;Laerm;55984;48.790;8.990;2023-01-10T15:30:19;47.36;46.24;49.47;;
68945;Laerm;55984;48.790;8.990;2023-01-10T15:32:48;47.35;46.31;50.06;;
68945;Laerm;55984;48.790;8.990;2023-01-10T15:35:14;47.35;46.05;49.37;;
68945;Laerm;55984;48.790;8.990;2023-01-10T15:37:50;47.34;46.05;49.46;;
68945;Laerm;55984;48.790;8.990;2023-01-10T15:40:31;47.34;46.04;49.13;;
68945;Laerm;55984;48.790;8.990;2023-01-10T15:45:42;47.34;46.12;49.42;;
68945;Laerm;55984;48.790;8.990;2023-01-10T15:51:26;47.34;45.85;49.34;;
68945;Laerm;55984;48.790;8.990;2023-01-10T15:56:34;47.34;46.07;49.14;;
68945;Laerm;55984;48.790;8.990;2023-01-10T15:59:03;47.34;46.28;49.74;;
68945;Laerm;55984;48.790;8.990;2023-01-10T16:01:30;47.34;46.23;49.71;;
68945;Laerm;55984;48.790;8.990;2023-01-10T16:04:02;47.34;46.13;49.67;;
68945;Laerm;55984;48.790;8.990;2023-01-10T16:06:35;47.34;46.19;49.60;;
68945;Laerm;55984;48.790;8.990;2023-01-10T16:09:04;47.34;46.10;49.50;;
68945;Laerm;55984;48.790;8.990;2023-01-10T16:11:45;47.34;46.18;49.51;;
68945;Laerm;55984;48.790;8.990;2023-01-10T16:14:29;47.34;46.13;49.88;;
68945;Laerm;55984;48.790;8.990;2023-01-10T16:16:55;47.34;46.17;49.60;;
68945;Laerm;55984;48.790;8.990;2023-01-10T16:19:20;47.33;46.00;49.30;;
68945;Laerm;55984;48.790;8.990;2023-01-10T16:21:49;47.34;46.26;49.81;;
68945;Laerm;55984;48.790;8.990;2023-01-10T16:24:18;47.35;46.04;49.30;;
68945;Laerm;55984;48.790;8.990;2023-01-10T16:26:46;47.34;46.22;49.46;;
68945;Laerm;55984;48.790;8.990;2023-01-10T16:29:12;47.35;46.12;49.60;;
68945;Laerm;55984;48.790;8.990;2023-01-10T16:31:39;47.35;46.13;49.52;;
68945;Laerm;55984;48.790;8.990;2023-01-10T16:34:04;47.34;46.30;49.66;;
68945;Laerm;55984;48.790;8.990;2023-01-10T16:36:30;47.34;46.03;49.49;;
68945;Laerm;55984;48.790;8.990;2023-01-10T16:38:55;47.34;46.18;49.09;;
68945;Laerm;55984;48.790;8.990;2023-01-10T16:41:21;47.34;46.18;49.17;;